sensor_id;sensor_type;location;lat;lon;timestamp;pressure;altitude;pressure_sealevel;temperature;humidity
6599;BME280;3335;43.198;27.918;2022-07-15T00:01:04;152451.41;;;20.85;100.00
6599;BME280;3335;43.198;27.918;2022-07-15T00:03:31;152443.81;;;20.82;100.00
6599;BME280;3335;43.198;27.918;2022-07-15T00:05:58;152441.28;;;20.81;100.00
6599;BME280;3335;43.198;27.918;2022-07-15T00:08:25;152421.16;;;20.73;100.00
6599;BME280;3335;43.198;27.918;2022-07-15T00:10:54;152417.44;;;20.72;100.00
6599;BME280;3335;43.198;27.918;2022-07-15T00:13:21;152350.72;;;20.45;100.00
6599;BME280;3335;43.198;27.918;2022-07-15T00:15:50;152393.53;;;20.62;100.00
6599;BME280;3335;43.198;27.918;2022-07-15T00:18:19;152380.94;;;20.57;100.00
6599;BME280;3335;43.198;27.918;2022-07-15T00:20:45;152384.69;;;20.59;100.00
6599;BME280;3335;43.198;27.918;2022-07-15T00:23:13;152384.69;;;20.59;100.00
6599;BME280;3335;43.198;27.918;2022-07-15T00:25:40;152380.94;;;20.57;100.00
6599;BME280;3335;43.198;27.918;2022-07-15T00:28:07;152374.63;;;20.55;100.00
6599;BME280;3335;43.198;27.918;2022-07-15T00:30:37;152315.50;;;20.31;100.00
6599;BME280;3335;43.198;27.918;2022-07-15T00:33:04;152359.53;;;20.48;100.00
6599;BME280;3335;43.198;27.918;2022-07-15T00:35:34;152343.19;;;20.42;100.00
6599;BME280;3335;43.198;27.918;2022-07-15T00:38:02;152382.16;;;20.58;100.00
6599;BME280;3335;43.198;27.918;2022-07-15T00:40:29;152370.84;;;20.53;100.00
6599;BME280;3335;43.198;27.918;2022-07-15T00:42:57;152358.31;;;20.48;100.00
6599;BME280;3335;43.198;27.918;2022-07-15T00:45:24;152334.41;;;20.38;100.00
6599;BME280;3335;43.198;27.918;2022-07-15T00:47:52;152328.09;;;20.36;100.00
6599;BME280;3335;43.198;27.918;2022-07-15T00:50:21;152315.50;;;20.31;100.00
6599;BME280;3335;43.198;27.918;2022-07-15T00:52:53;152297.88;;;20.24;100.00
6599;BME280;3335;43.198;27.918;2022-07-15T00:55:22;152302.88;;;20.26;100.00
6599;BME280;3335;43.198;27.918;2022-07-15T00:57:49;152255.09;;;20.06;100.00
6599;BME280;3335;43.198;27.918;2022-07-15T01:00:18;152295.34;;;20.23;100.00
6599;BME280;3335;43.198;27.918;2022-07-15T01:02:45;152277.72;;;20.16;100.00
6599;BME280;3335;43.198;27.918;2022-07-15T01:05:16;152286.56;;;20.19;100.00
6599;BME280;3335;43.198;27.918;2022-07-15T01:07:44;152282.78;;;20.18;100.00
6599;BME280;3335;43.198;27.918;2022-07-15T01:10:12;152273.97;;;20.14;100.00
6599;BME280;3335;43.198;27.918;2022-07-15T01:12:39;152231.19;;;19.97;100.00
6599;BME280;3335;43.198;27.918;2022-07-15T01:15:08;152265.16;;;20.10;100.00
6599;BME280;3335;43.198;27.918;2022-07-15T01:17:35;152253.81;;;20.06;100.00
6599;BME280;3335;43.198;27.918;2022-07-15T01:20:02;152252.56;;;20.05;100.00
6599;BME280;3335;43.198;27.918;2022-07-15T01:22:31;152257.63;;;20.07;100.00
6599;BME280;3335;43.198;27.918;2022-07-15T01:24:58;152242.50;;;20.01;100.00
6599;BME280;3335;43.198;27.918;2022-07-15T01:27:25;152241.25;;;20.01;100.00
6599;BME280;3335;43.198;27.918;2022-07-15T01:29:53;152222.41;;;19.93;100.00
6599;BME280;3335;43.198;27.918;2022-07-15T01:32:20;152217.34;;;19.91;100.00
6599;BME280;3335;43.198;27.918;2022-07-15T01:34:47;152224.94;;;19.94;100.00
6599;BME280;3335;43.198;27.918;2022-07-15T01:37:14;152080.28;;;19.36;100.00
6599;BME280;3335;43.198;27.918;2022-07-15T01:39:42;152199.78;;;19.84;100.00
6599;BME280;3335;43.198;27.918;2022-07-15T01:42:10;152203.56;;;19.86;100.00
6599;BME280;3335;43.198;27.918;2022-07-15T01:44:37;152184.66;;;19.78;100.00
6599;BME280;3335;43.198;27.918;2022-07-15T01:47:04;152183.41;;;19.78;100.00
6599;BME280;3335;43.198;27.918;2022-07-15T01:49:31;152189.72;;;19.80;100.00
6599;BME280;3335;43.198;27.918;2022-07-15T01:51:59;152189.72;;;19.80;100.00
6599;BME280;3335;43.198;27.918;2022-07-15T01:54:28;152202.28;;;19.85;100.00
6599;BME280;3335;43.198;27.918;2022-07-15T01:56:57;152194.72;;;19.82;100.00
6599;BME280;3335;43.198;27.918;2022-07-15T01:59:24;152164.56;;;19.70;100.00
6599;BME280;3335;43.198;27.918;2022-07-15T02:01:52;152042.56;;;19.21;100.00
6599;BME280;3335;43.198;27.918;2022-07-15T02:04:20;152197.25;;;19.83;100.00
6599;BME280;3335;43.198;27.918;2022-07-15T02:06:47;152198.50;;;19.84;100.00
6599;BME280;3335;43.198;27.918;2022-07-15T02:09:14;152177.16;;;19.75;100.00
6599;BME280;3335;43.198;27.918;2022-07-15T02:11:42;152174.63;;;19.74;100.00
6599;BME280;3335;43.198;27.918;2022-07-15T02:14:10;152170.84;;;19.73;100.00
6599;BME280;3335;43.198;27.918;2022-07-15T02:16:37;152162.03;;;19.69;100.00
6599;BME280;3335;43.198;27.918;2022-07-15T02:19:04;152153.25;;;19.65;100.00
6599;BME280;3335;43.198;27.918;2022-07-15T02:21:31;152104.22;;;19.46;100.00
6599;BME280;3335;43.198;27.918;2022-07-15T02:23:58;152121.84;;;19.53;100.00
6599;BME280;3335;43.198;27.918;2022-07-15T02:26:26;152149.47;;;19.64;100.00
6599;BME280;3335;43.198;27.918;2022-07-15T02:28:53;152140.69;;;19.60;100.00
6599;BME280;3335;43.198;27.918;2022-07-15T02:31:21;152152.00;;;19.65;100.00
6599;BME280;3335;43.198;27.918;2022-07-15T02:33:50;152113.00;;;19.49;100.00
6599;BME280;3335;43.198;27.918;2022-07-15T02:36:17;152124.31;;;19.54;100.00
6599;BME280;3335;43.198;27.918;2022-07-15T02:38:44;152111.75;;;19.49;100.00
6599;BME280;3335;43.198;27.918;2022-07-15T02:41:14;152104.22;;;19.46;100.00
6599;BME280;3335;43.198;27.918;2022-07-15T02:43:48;152091.59;;;19.41;100.00
6599;BME280;3335;43.198;27.918;2022-07-15T02:46:25;152104.22;;;19.46;100.00
6599;BME280;3335;43.198;27.918;2022-07-15T02:48:57;152081.56;;;19.37;100.00
6599;BME280;3335;43.198;27.918;2022-07-15T02:51:30;152106.75;;;19.47;100.00
6599;BME280;3335;43.198;27.918;2022-07-15T02:54:04;152101.69;;;19.45;100.00
6599;BME280;3335;43.198;27.918;2022-07-15T02:56:38;152106.75;;;19.47;100.00
6599;BME280;3335;43.198;27.918;2022-07-15T02:59:08;152099.19;;;19.44;100.00
6599;BME280;3335;43.198;27.918;2022-07-15T03:01:37;152091.59;;;19.41;100.00
6599;BME280;3335;43.198;27.918;2022-07-15T03:04:04;152092.88;;;19.41;100.00
6599;BME280;3335;43.198;27.918;2022-07-15T03:06:31;152109.28;;;19.48;100.00
6599;BME280;3335;43.198;27.918;2022-07-15T03:08:59;152089.06;;;19.40;100.00
6599;BME280;3335;43.198;27.918;2022-07-15T03:11:26;152031.25;;;19.16;100.00
6599;BME280;3335;43.198;27.918;2022-07-15T03:13:53;152097.91;;;19.43;100.00
6599;BME280;3335;43.198;27.918;2022-07-15T03:16:21;152108.00;;;19.47;100.00
6599;BME280;3335;43.198;27.918;2022-07-15T03:18:51;152091.59;;;19.41;100.00
6599;BME280;3335;43.198;27.918;2022-07-15T03:21:19;152084.06;;;19.38;100.00
6599;BME280;3335;43.198;27.918;2022-07-15T03:23:49;152065.19;;;19.30;100.00
6599;BME280;3335;43.198;27.918;2022-07-15T03:26:19;152074.03;;;19.34;100.00
6599;BME280;3335;43.198;27.918;2022-07-15T03:28:47;152018.69;;;19.11;100.00
6599;BME280;3335;43.198;27.918;2022-07-15T03:31:16;152063.94;;;19.30;100.00
6599;BME280;3335;43.198;27.918;2022-07-15T03:33:45;152090.34;;;19.40;100.00
6599;BME280;3335;43.198;27.918;2022-07-15T03:36:13;152084.06;;;19.38;100.00
6599;BME280;3335;43.198;27.918;2022-07-15T03:38:40;152087.81;;;19.39;100.00
6599;BME280;3335;43.198;27.918;2022-07-15T03:41:07;152056.41;;;19.27;100.00
6599;BME280;3335;43.198;27.918;2022-07-15T03:43:34;152074.03;;;19.34;100.00
6599;BME280;3335;43.198;27.918;2022-07-15T03:46:01;152046.34;;;19.22;100.00
6599;BME280;3335;43.198;27.918;2022-07-15T03:48:28;152071.50;;;19.33;100.00
6599;BME280;3335;43.198;27.918;2022-07-15T03:50:55;152071.50;;;19.33;100.00
6599;BME280;3335;43.198;27.918;2022-07-15T03:53:23;152076.50;;;19.35;100.00
6599;BME280;3335;43.198;27.918;2022-07-15T03:55:50;152084.06;;;19.38;100.00
6599;BME280;3335;43.198;27.918;2022-07-15T03:58:17;152091.59;;;19.41;100.00
6599;BME280;3335;43.198;27.918;2022-07-15T04:00:44;152111.75;;;19.49;100.00
6599;BME280;3335;43.198;27.918;2022-07-15T04:03:11;152113.00;;;19.49;100.00
6599;BME280;3335;43.198;27.918;2022-07-15T04:05:38;152121.84;;;19.53;100.00
6599;BME280;3335;43.198;27.918;2022-07-15T04:08:05;152134.38;;;19.58;100.00
6599;BME280;3335;43.198;27.918;2022-07-15T04:10:37;152121.84;;;19.53;100.00
6599;BME280;3335;43.198;27.918;2022-07-15T04:13:10;152128.09;;;19.55;100.00
6599;BME280;3335;43.198;27.918;2022-07-15T04:15:48;152119.31;;;19.52;100.00
6599;BME280;3335;43.198;27.918;2022-07-15T04:18:15;152126.84;;;19.55;100.00
6599;BME280;3335;43.198;27.918;2022-07-15T04:20:42;152134.38;;;19.58;100.00
6599;BME280;3335;43.198;27.918;2022-07-15T04:23:09;152140.69;;;19.60;100.00
6599;BME280;3335;43.198;27.918;2022-07-15T04:25:38;152139.41;;;19.60;100.00
6599;BME280;3335;43.198;27.918;2022-07-15T04:28:05;152154.53;;;19.66;100.00
6599;BME280;3335;43.198;27.918;2022-07-15T04:30:32;152164.56;;;19.70;100.00
6599;BME280;3335;43.198;27.918;2022-07-15T04:32:59;152153.25;;;19.65;100.00
6599;BME280;3335;43.198;27.918;2022-07-15T04:35:27;152180.94;;;19.77;100.00
6599;BME280;3335;43.198;27.918;2022-07-15T04:37:54;152182.16;;;19.77;100.00
6599;BME280;3335;43.198;27.918;2022-07-15T04:40:20;152162.03;;;19.69;100.00
6599;BME280;3335;43.198;27.918;2022-07-15T04:42:49;152193.47;;;19.82;100.00
6599;BME280;3335;43.198;27.918;2022-07-15T04:45:16;152213.63;;;19.90;100.00
6599;BME280;3335;43.198;27.918;2022-07-15T04:47:43;152222.41;;;19.93;100.00
6599;BME280;3335;43.198;27.918;2022-07-15T04:50:10;152252.56;;;20.05;100.00
6599;BME280;3335;43.198;27.918;2022-07-15T04:52:54;152267.66;;;20.12;100.00
6599;BME280;3335;43.198;27.918;2022-07-15T04:55:21;152278.97;;;20.16;100.00
6599;BME280;3335;43.198;27.918;2022-07-15T04:57:49;152295.34;;;20.23;100.00
6599;BME280;3335;43.198;27.918;2022-07-15T05:00:16;152305.41;;;20.27;100.00
6599;BME280;3335;43.198;27.918;2022-07-15T05:02:43;152325.56;;;20.35;100.00
6599;BME280;3335;43.198;27.918;2022-07-15T05:05:10;152291.56;;;20.21;100.00
6599;BME280;3335;43.198;27.918;2022-07-15T05:07:38;152330.63;;;20.37;100.00
6599;BME280;3335;43.198;27.918;2022-07-15T05:10:06;152378.41;;;20.56;100.00
6599;BME280;3335;43.198;27.918;2022-07-15T05:12:34;152367.09;;;20.51;100.00
6599;BME280;3335;43.198;27.918;2022-07-15T05:15:02;152418.66;;;20.72;100.00
6599;BME280;3335;43.198;27.918;2022-07-15T05:17:29;152443.81;;;20.82;100.00
6599;BME280;3335;43.198;27.918;2022-07-15T05:19:56;152456.41;;;20.87;100.00
6599;BME280;3335;43.198;27.918;2022-07-15T05:22:23;152487.88;;;21.00;100.00
6599;BME280;3335;43.198;27.918;2022-07-15T05:24:50;152511.81;;;21.10;100.00
6599;BME280;3335;43.198;27.918;2022-07-15T05:27:17;152538.25;;;21.20;100.00
6599;BME280;3335;43.198;27.918;2022-07-15T05:29:44;152569.72;;;21.33;100.00
6599;BME280;3335;43.198;27.918;2022-07-15T05:32:13;152602.44;;;21.46;100.00
6599;BME280;3335;43.198;27.918;2022-07-15T05:34:39;152620.03;;;21.53;100.00
6599;BME280;3335;43.198;27.918;2022-07-15T05:37:06;152645.22;;;21.63;100.00
6599;BME280;3335;43.198;27.918;2022-07-15T05:39:34;152680.47;;;21.77;100.00
6599;BME280;3335;43.198;27.918;2022-07-15T05:42:01;152705.66;;;21.88;100.00
6599;BME280;3335;43.198;27.918;2022-07-15T05:44:28;152728.38;;;21.97;100.00
6599;BME280;3335;43.198;27.918;2022-07-15T05:46:54;152764.88;;;22.11;100.00
6599;BME280;3335;43.198;27.918;2022-07-15T05:49:23;152790.09;;;22.21;100.00
6599;BME280;3335;43.198;27.918;2022-07-15T05:51:50;152824.06;;;22.35;100.00
6599;BME280;3335;43.198;27.918;2022-07-15T05:54:17;152856.81;;;22.48;100.00
6599;BME280;3335;43.198;27.918;2022-07-15T05:56:44;152887.06;;;22.60;100.00
6599;BME280;3335;43.198;27.918;2022-07-15T05:59:11;152908.47;;;22.69;100.00
6599;BME280;3335;43.198;27.918;2022-07-15T06:01:38;152942.53;;;22.83;100.00
6599;BME280;3335;43.198;27.918;2022-07-15T06:04:05;152965.19;;;22.92;100.00
6599;BME280;3335;43.198;27.918;2022-07-15T06:06:33;152990.41;;;23.02;100.00
6599;BME280;3335;43.198;27.918;2022-07-15T06:09:00;152831.63;;;22.38;100.00
6599;BME280;3335;43.198;27.918;2022-07-15T06:11:27;153071.03;;;23.34;100.00
6599;BME280;3335;43.198;27.918;2022-07-15T06:13:54;153113.97;;;23.51;100.00
6599;BME280;3335;43.198;27.918;2022-07-15T06:16:22;153149.25;;;23.66;100.00
6599;BME280;3335;43.198;27.918;2022-07-15T06:18:48;153187.03;;;23.81;100.00
6599;BME280;3335;43.198;27.918;2022-07-15T06:21:16;153192.09;;;23.83;100.00
6599;BME280;3335;43.198;27.918;2022-07-15T06:23:44;153245.06;;;24.04;100.00
6599;BME280;3335;43.198;27.918;2022-07-15T06:26:13;153261.41;;;24.11;100.00
6599;BME280;3335;43.198;27.918;2022-07-15T06:28:44;153303.09;;;24.27;100.00
6599;BME280;3335;43.198;27.918;2022-07-15T06:31:11;153330.81;;;24.38;100.00
6599;BME280;3335;43.198;27.918;2022-07-15T06:33:38;153352.28;;;24.47;100.00
6599;BME280;3335;43.198;27.918;2022-07-15T06:36:05;153381.25;;;24.59;100.00
6599;BME280;3335;43.198;27.918;2022-07-15T06:38:32;153409.03;;;24.70;100.00
6599;BME280;3335;43.198;27.918;2022-07-15T06:41:01;153438.00;;;24.81;100.00
6599;BME280;3335;43.198;27.918;2022-07-15T06:43:28;153484.72;;;25.00;100.00
6599;BME280;3335;43.198;27.918;2022-07-15T06:45:55;153522.56;;;25.15;100.00
6599;BME280;3335;43.198;27.918;2022-07-15T06:48:22;153424.13;;;24.76;100.00
6599;BME280;3335;43.198;27.918;2022-07-15T06:50:48;153600.84;;;25.47;100.00
6599;BME280;3335;43.198;27.918;2022-07-15T06:53:15;153632.41;;;25.59;100.00
6599;BME280;3335;43.198;27.918;2022-07-15T06:55:42;153669.00;;;25.74;100.00
6599;BME280;3335;43.198;27.918;2022-07-15T06:58:10;153699.28;;;25.86;100.00
6599;BME280;3335;43.198;27.918;2022-07-15T07:00:37;153727.06;;;25.97;100.00
6599;BME280;3335;43.198;27.918;2022-07-15T07:03:04;153754.84;;;26.08;96.01
6599;BME280;3335;43.198;27.918;2022-07-15T07:05:31;153794.00;;;26.24;98.09
6599;BME280;3335;43.198;27.918;2022-07-15T07:07:58;153824.31;;;26.36;95.60
6599;BME280;3335;43.198;27.918;2022-07-15T07:10:25;153852.06;;;26.47;85.49
6599;BME280;3335;43.198;27.918;2022-07-15T07:12:52;153860.94;;;26.51;80.08
6599;BME280;3335;43.198;27.918;2022-07-15T07:15:21;153913.94;;;26.72;81.30
6599;BME280;3335;43.198;27.918;2022-07-15T07:17:49;153944.28;;;26.84;74.09
6599;BME280;3335;43.198;27.918;2022-07-15T07:20:17;153969.53;;;26.94;79.76
6599;BME280;3335;43.198;27.918;2022-07-15T07:22:44;153994.81;;;27.05;81.92
6599;BME280;3335;43.198;27.918;2022-07-15T07:25:11;154031.44;;;27.19;73.41
6599;BME280;3335;43.198;27.918;2022-07-15T07:27:38;154052.91;;;27.28;75.02
6599;BME280;3335;43.198;27.918;2022-07-15T07:30:06;154073.16;;;27.36;75.80
6599;BME280;3335;43.198;27.918;2022-07-15T07:32:35;154098.41;;;27.46;73.74
6599;BME280;3335;43.198;27.918;2022-07-15T07:35:02;153934.13;;;26.80;68.43
6599;BME280;3335;43.198;27.918;2022-07-15T07:37:33;154126.22;;;27.57;69.61
6599;BME280;3335;43.198;27.918;2022-07-15T07:40:00;154166.69;;;27.73;70.35
6599;BME280;3335;43.198;27.918;2022-07-15T07:42:27;154188.16;;;27.82;72.12
6599;BME280;3335;43.198;27.918;2022-07-15T07:44:54;154200.78;;;27.87;77.29
6599;BME280;3335;43.198;27.918;2022-07-15T07:47:21;154199.50;;;27.87;98.13
6599;BME280;3335;43.198;27.918;2022-07-15T07:49:49;154209.63;;;27.91;100.00
6599;BME280;3335;43.198;27.918;2022-07-15T07:52:17;154164.13;;;27.72;100.00
6599;BME280;3335;43.198;27.918;2022-07-15T07:54:44;154212.16;;;27.92;100.00
6599;BME280;3335;43.198;27.918;2022-07-15T07:57:11;154214.69;;;27.93;100.00
6599;BME280;3335;43.198;27.918;2022-07-15T07:59:38;154217.22;;;27.94;100.00
6599;BME280;3335;43.198;27.918;2022-07-15T08:02:05;154184.34;;;27.80;100.00
6599;BME280;3335;43.198;27.918;2022-07-15T08:04:32;154165.41;;;27.73;100.00
6599;BME280;3335;43.198;27.918;2022-07-15T08:07:01;154017.53;;;27.14;100.00
6599;BME280;3335;43.198;27.918;2022-07-15T08:09:27;154118.66;;;27.54;100.00
6599;BME280;3335;43.198;27.918;2022-07-15T08:11:54;154074.41;;;27.36;100.00
6599;BME280;3335;43.198;27.918;2022-07-15T08:14:22;154121.19;;;27.55;100.00
6599;BME280;3335;43.198;27.918;2022-07-15T08:16:49;154055.44;;;27.29;100.00
6599;BME280;3335;43.198;27.918;2022-07-15T08:19:17;154148.97;;;27.66;100.00
6599;BME280;3335;43.198;27.918;2022-07-15T08:21:45;154156.56;;;27.69;100.00
6599;BME280;3335;43.198;27.918;2022-07-15T08:24:13;154146.47;;;27.65;100.00
6599;BME280;3335;43.198;27.918;2022-07-15T08:26:40;154166.69;;;27.73;100.00
6599;BME280;3335;43.198;27.918;2022-07-15T08:29:07;154075.69;;;27.37;100.00
6599;BME280;3335;43.198;27.918;2022-07-15T08:31:34;154164.13;;;27.72;100.00
6599;BME280;3335;43.198;27.918;2022-07-15T08:34:02;154186.88;;;27.81;100.00
6599;BME280;3335;43.198;27.918;2022-07-15T08:36:29;154174.25;;;27.76;100.00
6599;BME280;3335;43.198;27.918;2022-07-15T08:38:56;154166.69;;;27.73;100.00
6599;BME280;3335;43.198;27.918;2022-07-15T08:41:24;154181.84;;;27.79;100.00
6599;BME280;3335;43.198;27.918;2022-07-15T08:43:51;154169.22;;;27.74;100.00
6599;BME280;3335;43.198;27.918;2022-07-15T08:46:19;154196.97;;;27.85;100.00
6599;BME280;3335;43.198;27.918;2022-07-15T08:48:49;154202.06;;;27.88;100.00
6599;BME280;3335;43.198;27.918;2022-07-15T08:51:21;154207.06;;;27.90;100.00
6599;BME280;3335;43.198;27.918;2022-07-15T08:53:50;154217.22;;;27.94;100.00
6599;BME280;3335;43.198;27.918;2022-07-15T08:56:17;154150.22;;;27.67;100.00
6599;BME280;3335;43.198;27.918;2022-07-15T08:58:46;154232.34;;;28.00;100.00
6599;BME280;3335;43.198;27.918;2022-07-15T09:01:13;154243.72;;;28.04;100.00
6599;BME280;3335;43.198;27.918;2022-07-15T09:03:41;154233.63;;;28.00;100.00
6599;BME280;3335;43.198;27.918;2022-07-15T09:06:08;154265.31;;;28.13;100.00
6599;BME280;3335;43.198;27.918;2022-07-15T09:08:35;154194.50;;;27.84;100.00
6599;BME280;3335;43.198;27.918;2022-07-15T09:11:02;154285.50;;;28.21;100.00
6599;BME280;3335;43.198;27.918;2022-07-15T09:13:32;154277.88;;;28.18;100.00
6599;BME280;3335;43.198;27.918;2022-07-15T09:16:02;154280.44;;;28.19;100.00
6599;BME280;3335;43.198;27.918;2022-07-15T09:18:32;154310.78;;;28.31;100.00
6599;BME280;3335;43.198;27.918;2022-07-15T09:21:00;154237.44;;;28.02;100.00
6599;BME280;3335;43.198;27.918;2022-07-15T09:23:29;154298.16;;;28.26;100.00
6599;BME280;3335;43.198;27.918;2022-07-15T09:25:58;154363.84;;;28.52;100.00
6599;BME280;3335;43.198;27.918;2022-07-15T09:28:39;154385.34;;;28.61;100.00
6599;BME280;3335;43.198;27.918;2022-07-15T09:31:07;154414.47;;;28.73;100.00
6599;BME280;3335;43.198;27.918;2022-07-15T09:33:59;154409.34;;;28.70;100.00
6599;BME280;3335;43.198;27.918;2022-07-15T09:36:28;154443.56;;;28.84;100.00
6599;BME280;3335;43.198;27.918;2022-07-15T09:38:56;154422.03;;;28.76;100.00
6599;BME280;3335;43.198;27.918;2022-07-15T09:41:29;154333.53;;;28.40;100.00
6599;BME280;3335;43.198;27.918;2022-07-15T09:43:59;154459.97;;;28.91;100.00
6599;BME280;3335;43.198;27.918;2022-07-15T09:46:29;154423.31;;;28.76;100.00
6599;BME280;3335;43.198;27.918;2022-07-15T09:48:57;154523.22;;;29.16;100.00
6599;BME280;3335;43.198;27.918;2022-07-15T09:51:24;154561.22;;;29.31;100.00
6599;BME280;3335;43.198;27.918;2022-07-15T09:53:51;154575.06;;;29.37;100.00
6599;BME280;3335;43.198;27.918;2022-07-15T09:56:20;154583.97;;;29.40;100.00
6599;BME280;3335;43.198;27.918;2022-07-15T09:58:52;154553.53;;;29.28;100.00
6599;BME280;3335;43.198;27.918;2022-07-15T10:01:19;154586.50;;;29.41;100.00
6599;BME280;3335;43.198;27.918;2022-07-15T10:03:49;154621.91;;;29.55;100.00
6599;BME280;3335;43.198;27.918;2022-07-15T10:06:16;154597.88;;;29.46;100.00
6599;BME280;3335;43.198;27.918;2022-07-15T10:08:47;154628.22;;;29.58;100.00
6599;BME280;3335;43.198;27.918;2022-07-15T10:11:15;154634.53;;;29.61;100.00
6599;BME280;3335;43.198;27.918;2022-07-15T10:13:57;154680.09;;;29.79;100.00
6599;BME280;3335;43.198;27.918;2022-07-15T10:16:41;154657.34;;;29.70;100.00
6599;BME280;3335;43.198;27.918;2022-07-15T10:19:18;154690.22;;;29.83;100.00
6599;BME280;3335;43.198;27.918;2022-07-15T10:21:53;154700.31;;;29.87;100.00
6599;BME280;3335;43.198;27.918;2022-07-15T10:24:37;154735.78;;;30.01;100.00
6599;BME280;3335;43.198;27.918;2022-07-15T10:27:19;154710.47;;;29.91;100.00
6599;BME280;3335;43.198;27.918;2022-07-15T10:29:48;154735.78;;;30.01;100.00
6599;BME280;3335;43.198;27.918;2022-07-15T10:32:15;154763.63;;;30.12;100.00
6599;BME280;3335;43.198;27.918;2022-07-15T10:34:43;154786.41;;;30.21;100.00
6599;BME280;3335;43.198;27.918;2022-07-15T10:37:11;154801.56;;;30.27;100.00
6599;BME280;3335;43.198;27.918;2022-07-15T10:39:57;154818.03;;;30.34;100.00
6599;BME280;3335;43.198;27.918;2022-07-15T10:42:58;154842.06;;;30.43;100.00
6599;BME280;3335;43.198;27.918;2022-07-15T10:45:27;154852.22;;;30.48;100.00
6599;BME280;3335;43.198;27.918;2022-07-15T10:48:25;154872.47;;;30.56;100.00
6599;BME280;3335;43.198;27.918;2022-07-15T10:50:53;154814.22;;;30.32;100.00
6599;BME280;3335;43.198;27.918;2022-07-15T10:53:22;154842.06;;;30.43;100.00
6599;BME280;3335;43.198;27.918;2022-07-15T10:55:51;154839.53;;;30.42;100.00
6599;BME280;3335;43.198;27.918;2022-07-15T10:58:18;154885.13;;;30.61;100.00
6599;BME280;3335;43.198;27.918;2022-07-15T11:00:47;154910.44;;;30.71;100.00
6599;BME280;3335;43.198;27.918;2022-07-15T11:03:15;154897.78;;;30.66;100.00
6599;BME280;3335;43.198;27.918;2022-07-15T11:06:02;154891.47;;;30.63;100.00
6599;BME280;3335;43.198;27.918;2022-07-15T11:08:49;154912.97;;;30.72;100.00
6599;BME280;3335;43.198;27.918;2022-07-15T11:14:45;154912.97;;;30.72;100.00
6599;BME280;3335;43.198;27.918;2022-07-15T11:17:13;154901.59;;;30.67;100.00
6599;BME280;3335;43.198;27.918;2022-07-15T11:19:44;154711.75;;;29.91;100.00
6599;BME280;3335;43.198;27.918;2022-07-15T11:22:13;154891.47;;;30.63;100.00
6599;BME280;3335;43.198;27.918;2022-07-15T11:24:40;154920.56;;;30.75;100.00
6599;BME280;3335;43.198;27.918;2022-07-15T11:27:07;154895.28;;;30.65;100.00
6599;BME280;3335;43.198;27.918;2022-07-15T11:29:43;154961.06;;;30.91;100.00
6599;BME280;3335;43.198;27.918;2022-07-15T11:32:12;154904.13;;;30.68;100.00
6599;BME280;3335;43.198;27.918;2022-07-15T11:34:41;154935.75;;;30.81;100.00
6599;BME280;3335;43.198;27.918;2022-07-15T11:37:09;154930.72;;;30.79;100.00
6599;BME280;3335;43.198;27.918;2022-07-15T11:39:39;154864.88;;;30.53;100.00
6599;BME280;3335;43.198;27.918;2022-07-15T11:42:17;154892.75;;;30.64;100.00
6599;BME280;3335;43.198;27.918;2022-07-15T11:45:03;154956.00;;;30.89;100.00
6599;BME280;3335;43.198;27.918;2022-07-15T11:47:30;154938.28;;;30.82;100.00
6599;BME280;3335;43.198;27.918;2022-07-15T11:50:02;155002.91;;;31.08;100.00
6599;BME280;3335;43.198;27.918;2022-07-15T11:52:29;155029.47;;;31.18;100.00
6599;BME280;3335;43.198;27.918;2022-07-15T11:54:58;154995.28;;;31.05;100.00
6599;BME280;3335;43.198;27.918;2022-07-15T11:57:24;154996.56;;;31.05;100.00
6599;BME280;3335;43.198;27.918;2022-07-15T11:59:58;155014.31;;;31.12;100.00
6599;BME280;3335;43.198;27.918;2022-07-15T12:02:28;154995.28;;;31.05;100.00
6599;BME280;3335;43.198;27.918;2022-07-15T12:05:01;154968.66;;;30.94;100.00
6599;BME280;3335;43.198;27.918;2022-07-15T12:07:44;154983.84;;;31.00;100.00
6599;BME280;3335;43.198;27.918;2022-07-15T12:10:14;155024.44;;;31.16;100.00
6599;BME280;3335;43.198;27.918;2022-07-15T12:12:42;155006.69;;;31.09;100.00
6599;BME280;3335;43.198;27.918;2022-07-15T12:15:18;155044.66;;;31.24;100.00
6599;BME280;3335;43.198;27.918;2022-07-15T12:17:45;155049.75;;;31.26;100.00
6599;BME280;3335;43.198;27.918;2022-07-15T12:20:12;155039.59;;;31.22;100.00
6599;BME280;3335;43.198;27.918;2022-07-15T12:23:01;154997.84;;;31.06;100.00
6599;BME280;3335;43.198;27.918;2022-07-15T12:25:29;154910.44;;;30.71;100.00
6599;BME280;3335;43.198;27.918;2022-07-15T12:27:56;154930.72;;;30.79;100.00
6599;BME280;3335;43.198;27.918;2022-07-15T12:30:30;155019.34;;;31.14;100.00
6599;BME280;3335;43.198;27.918;2022-07-15T12:33:13;155030.72;;;31.19;100.00
6599;BME280;3335;43.198;27.918;2022-07-15T12:35:40;155064.91;;;31.33;100.00
6599;BME280;3335;43.198;27.918;2022-07-15T12:38:07;155053.50;;;31.28;100.00
6599;BME280;3335;43.198;27.918;2022-07-15T12:40:36;155024.44;;;31.16;100.00
6599;BME280;3335;43.198;27.918;2022-07-15T12:43:03;155058.59;;;31.30;100.00
6599;BME280;3335;43.198;27.918;2022-07-15T12:45:36;154999.09;;;31.06;100.00
6599;BME280;3335;43.198;27.918;2022-07-15T12:48:06;155032.00;;;31.19;100.00
6599;BME280;3335;43.198;27.918;2022-07-15T12:50:35;155026.91;;;31.17;100.00
6599;BME280;3335;43.198;27.918;2022-07-15T12:53:03;155014.31;;;31.12;100.00
6599;BME280;3335;43.198;27.918;2022-07-15T12:55:32;155016.81;;;31.13;100.00
6599;BME280;3335;43.198;27.918;2022-07-15T12:58:07;154961.06;;;30.91;100.00
6599;BME280;3335;43.198;27.918;2022-07-15T13:00:35;154950.94;;;30.87;100.00
6599;BME280;3335;43.198;27.918;2022-07-15T13:03:04;154978.81;;;30.98;100.00